createdAt,value
2019-06-27T00:01:00.244Z,9.97
2019-06-27T00:03:30.537Z,10.87
2019-06-27T00:06:00.863Z,10.33
2019-06-27T00:08:31.344Z,13.10
2019-06-27T00:11:01.649Z,10.73
2019-06-27T00:13:31.863Z,12.50
2019-06-27T00:16:02.173Z,16.33
2019-06-27T00:18:32.437Z,12.73
2019-06-27T00:21:02.676Z,10.87
2019-06-27T00:23:32.897Z,14.93
2019-06-27T00:26:03.192Z,12.30
2019-06-27T00:28:33.385Z,10.77
2019-06-27T00:31:03.619Z,10.30
2019-06-27T00:33:33.851Z,13.87
2019-06-27T00:36:04.065Z,10.33
2019-06-27T00:38:34.276Z,10.90
2019-06-27T00:41:04.587Z,10.43
2019-06-27T00:43:34.846Z,14.53
2019-06-27T00:46:05.162Z,10.70
2019-06-27T00:48:35.381Z,10.07
2019-06-27T00:51:05.632Z,11.83
2019-06-27T00:53:35.826Z,13.23
2019-06-27T00:56:06.133Z,10.00
2019-06-27T00:58:36.405Z,17.67
2019-06-27T01:01:06.697Z,9.37
2019-06-27T01:03:36.894Z,10.93
2019-06-27T01:06:07.177Z,15.13
2019-06-27T01:08:37.452Z,8.57
2019-06-27T01:11:07.656Z,10.37
2019-06-27T01:13:37.893Z,10.87
2019-06-27T01:16:08.228Z,14.97
2019-06-27T01:18:38.465Z,14.00
2019-06-27T01:21:08.730Z,10.67
2019-06-27T01:23:39.012Z,9.00
2019-06-27T01:26:09.235Z,9.60
2019-06-27T01:28:39.541Z,9.57
2019-06-27T01:31:09.780Z,9.97
2019-06-27T01:33:40.038Z,10.97
2019-06-27T01:36:10.340Z,10.57
2019-06-27T01:38:40.573Z,13.97
2019-06-27T01:41:10.818Z,12.60
2019-06-27T01:43:41.048Z,9.43
2019-06-27T01:46:11.248Z,10.43
2019-06-27T01:48:41.472Z,10.90
2019-06-27T01:51:11.723Z,8.90
2019-06-27T01:53:41.944Z,12.80
2019-06-27T01:56:12.152Z,10.97
2019-06-27T01:58:42.443Z,12.57
2019-06-27T02:01:12.746Z,10.70
2019-06-27T02:03:42.957Z,11.13
2019-06-27T02:06:13.184Z,10.70
2019-06-27T02:08:43.416Z,13.13
2019-06-27T02:11:13.734Z,12.20
2019-06-27T02:13:43.944Z,14.33
2019-06-27T02:16:14.267Z,11.77
2019-06-27T02:18:44.468Z,13.93
2019-06-27T02:21:14.706Z,11.83
2019-06-27T02:23:44.992Z,12.10
2019-06-27T02:26:15.231Z,10.67
2019-06-27T02:28:45.449Z,9.90
2019-06-27T02:31:15.658Z,9.03
2019-06-27T02:33:45.855Z,9.10
2019-06-27T02:36:16.079Z,8.83
2019-06-27T02:38:46.291Z,9.60
2019-06-27T02:41:16.518Z,9.97
2019-06-27T02:43:47.076Z,13.23
2019-06-27T02:46:17.369Z,11.50
2019-06-27T02:48:47.638Z,12.23
2019-06-27T02:51:17.881Z,13.00
2019-06-27T02:53:48.104Z,14.27
2019-06-27T02:56:18.370Z,10.90
2019-06-27T02:58:48.578Z,12.40
2019-06-27T03:01:18.812Z,12.30
2019-06-27T03:03:49.032Z,11.23
2019-06-27T03:06:19.266Z,11.30
2019-06-27T03:08:49.485Z,12.33
2019-06-27T03:11:19.860Z,10.17
2019-06-27T03:13:50.211Z,10.43
2019-06-27T03:16:20.495Z,11.80
2019-06-27T03:18:50.783Z,13.50
2019-06-27T03:21:21.070Z,10.17
2019-06-27T03:23:51.274Z,10.57
2019-06-27T03:26:21.568Z,12.03
2019-06-27T03:28:54.078Z,14.70
2019-06-27T03:31:23.713Z,16.30
2019-06-27T03:33:53.963Z,12.00
2019-06-27T03:36:24.238Z,14.00
2019-06-27T03:38:54.453Z,10.53
2019-06-27T03:41:24.685Z,10.70
2019-06-27T03:43:54.953Z,10.60
2019-06-27T03:46:25.176Z,10.73
2019-06-27T03:48:55.399Z,13.53
2019-06-27T03:51:25.632Z,11.03
2019-06-27T03:53:55.850Z,13.83
2019-06-27T03:56:26.094Z,11.73
2019-06-27T03:59:11.558Z,11.60
2019-06-27T04:01:28.425Z,11.97
2019-06-27T04:03:58.645Z,15.43
2019-06-27T04:06:28.869Z,17.43
2019-06-27T04:08:59.668Z,22.10
2019-06-27T04:11:30.007Z,15.33
2019-06-27T04:14:00.498Z,19.03
2019-06-27T04:16:30.736Z,13.30
2019-06-27T04:19:01.131Z,11.97
2019-06-27T04:21:31.448Z,17.10
2019-06-27T04:24:01.652Z,16.10
2019-06-27T04:26:32.137Z,14.80
2019-06-27T04:29:02.355Z,11.50
2019-06-27T04:31:32.550Z,13.33
2019-06-27T04:34:02.781Z,12.93
2019-06-27T04:36:33.054Z,11.00
2019-06-27T04:39:03.549Z,10.47
2019-06-27T04:41:33.750Z,13.13
2019-06-27T04:44:03.980Z,12.27
2019-06-27T04:46:34.206Z,13.60
2019-06-27T04:49:04.441Z,19.00
2019-06-27T04:51:34.666Z,19.67
2019-06-27T04:54:05.010Z,23.47
2019-06-27T04:56:35.241Z,13.90
2019-06-27T04:59:05.505Z,15.20
2019-06-27T05:01:35.769Z,15.40
2019-06-27T05:04:05.951Z,13.87
2019-06-27T05:06:36.281Z,14.77
2019-06-27T05:09:08.321Z,12.77
2019-06-27T05:11:40.239Z,13.67
2019-06-27T05:14:10.488Z,17.37
2019-06-27T05:16:40.709Z,13.20
2019-06-27T05:19:10.929Z,13.47
2019-06-27T05:21:41.134Z,17.43
2019-06-27T05:24:11.427Z,11.67
2019-06-27T05:26:41.734Z,12.17
2019-06-27T05:29:11.958Z,12.03
2019-06-27T05:31:42.246Z,11.53
2019-06-27T05:34:12.502Z,11.60
2019-06-27T05:36:42.756Z,12.87
2019-06-27T05:39:13.044Z,10.50
2019-06-27T05:41:43.310Z,13.10
2019-06-27T05:44:13.508Z,11.85
2019-06-27T05:46:43.716Z,8.83
2019-06-27T05:49:13.934Z,9.77
2019-06-27T05:51:44.162Z,9.45
2019-06-27T05:54:14.429Z,10.65
2019-06-27T05:56:44.686Z,11.43
2019-06-27T05:59:14.933Z,11.00
2019-06-27T06:01:45.261Z,10.53
2019-06-27T06:04:15.508Z,8.80
2019-06-27T06:06:45.776Z,11.10
2019-06-27T06:09:16.076Z,9.20
2019-06-27T06:11:46.276Z,8.80
2019-06-27T06:14:16.479Z,23.10
2019-06-27T06:16:46.745Z,9.90
2019-06-27T06:21:46.415Z,8.95
2019-06-27T06:24:16.702Z,10.20
2019-06-27T06:26:46.903Z,8.60
2019-06-27T06:29:17.126Z,7.40
2019-06-27T06:31:49.415Z,9.20
2019-06-27T06:34:19.245Z,15.15
2019-06-27T06:41:48.125Z,9.30
2019-06-27T06:44:18.347Z,8.70
2019-06-27T06:46:48.669Z,11.00
2019-06-27T06:49:18.889Z,8.95
2019-06-27T06:51:49.094Z,7.90
2019-06-27T06:54:19.393Z,12.10
2019-06-27T06:56:49.584Z,9.20
2019-06-27T06:59:19.929Z,8.10
2019-06-27T07:01:50.096Z,8.53
2019-06-27T07:04:20.329Z,10.10
2019-06-27T07:06:50.542Z,7.70
2019-06-27T07:09:20.762Z,8.47
2019-06-27T07:11:51.062Z,9.33
2019-06-27T07:14:21.286Z,10.17
2019-06-27T07:16:51.529Z,7.93
2019-06-27T07:19:21.752Z,8.03
2019-06-27T07:21:52.037Z,8.00
2019-06-27T07:24:22.519Z,7.67
2019-06-27T07:26:52.849Z,8.00
2019-06-27T07:29:23.087Z,9.20
2019-06-27T07:31:53.289Z,8.47
2019-06-27T07:34:23.579Z,7.33
2019-06-27T07:36:53.814Z,8.07
2019-06-27T07:39:24.141Z,8.47
2019-06-27T07:41:54.414Z,8.50
2019-06-27T07:44:24.882Z,9.30
2019-06-27T07:46:55.320Z,8.00
2019-06-27T07:49:25.537Z,7.00
2019-06-27T07:51:55.842Z,6.83
2019-06-27T07:54:26.175Z,7.10
2019-06-27T07:56:56.390Z,7.37
2019-06-27T07:59:26.618Z,7.77
2019-06-27T08:01:56.838Z,8.80
2019-06-27T08:04:27.207Z,8.77
2019-06-27T08:06:57.425Z,8.43
2019-06-27T08:09:27.758Z,8.73
2019-06-27T08:11:58.064Z,8.80
2019-06-27T08:14:28.415Z,7.47
2019-06-27T08:16:58.640Z,9.67
2019-06-27T08:19:28.951Z,9.03
2019-06-27T08:21:59.235Z,11.47
2019-06-27T08:24:29.701Z,9.87
2019-06-27T08:26:59.905Z,10.77
2019-06-27T08:29:30.112Z,10.80
2019-06-27T08:32:00.374Z,12.90
2019-06-27T08:34:30.594Z,9.60
2019-06-27T08:37:00.901Z,9.60
2019-06-27T08:39:31.197Z,8.07
2019-06-27T08:42:01.463Z,8.63
2019-06-27T08:44:31.669Z,9.83
2019-06-27T08:47:01.899Z,10.17
2019-06-27T08:49:32.119Z,9.37
2019-06-27T08:52:02.328Z,9.57
2019-06-27T08:54:32.575Z,9.00
2019-06-27T08:57:02.806Z,7.93
2019-06-27T08:59:33.056Z,17.10
2019-06-27T09:02:08.648Z,11.65
2019-06-27T09:04:35.395Z,9.80
2019-06-27T09:07:05.879Z,9.90
2019-06-27T09:09:36.057Z,9.40
2019-06-27T09:12:06.269Z,10.40
2019-06-27T09:14:36.583Z,12.10
2019-06-27T09:17:06.815Z,13.90
2019-06-27T09:19:37.030Z,10.45
2019-06-27T09:22:07.303Z,9.30
2019-06-27T09:24:37.543Z,7.80
2019-06-27T09:27:07.763Z,10.13
2019-06-27T09:29:38.000Z,9.93
2019-06-27T09:32:20.992Z,10.77
2019-06-27T09:34:40.137Z,9.77
2019-06-27T09:37:10.346Z,11.40
2019-06-27T09:39:40.598Z,10.77
2019-06-27T09:42:10.802Z,16.87
2019-06-27T09:44:42.315Z,12.10
2019-06-27T09:47:12.696Z,10.90
2019-06-27T09:49:42.934Z,9.03
2019-06-27T09:52:13.131Z,11.03
2019-06-27T09:54:43.331Z,8.93
2019-06-27T09:57:13.719Z,11.87
2019-06-27T09:59:43.888Z,8.43
2019-06-27T10:02:14.181Z,8.27
2019-06-27T10:04:44.438Z,8.17
2019-06-27T10:07:14.647Z,8.07
2019-06-27T10:09:46.396Z,8.07
2019-06-27T10:12:16.782Z,12.97
2019-06-27T10:14:46.971Z,8.67
2019-06-27T10:17:17.168Z,8.60
2019-06-27T10:19:47.408Z,9.50
2019-06-27T10:22:17.612Z,8.60
2019-06-27T10:24:47.836Z,8.37
2019-06-27T10:27:18.135Z,8.27
2019-06-27T10:29:48.382Z,8.60
2019-06-27T10:32:18.616Z,7.93
2019-06-27T10:34:48.852Z,8.70
2019-06-27T10:37:19.075Z,14.00
2019-06-27T10:39:49.314Z,7.73
2019-06-27T10:42:19.520Z,8.53
2019-06-27T10:44:49.762Z,6.90
2019-06-27T10:47:19.955Z,7.43
2019-06-27T10:49:50.245Z,6.27
2019-06-27T10:52:20.630Z,5.33
2019-06-27T10:54:50.862Z,4.67
2019-06-27T10:57:21.131Z,6.77
2019-06-27T10:59:51.348Z,6.23
2019-06-27T11:02:21.541Z,5.60
2019-06-27T11:04:52.584Z,5.10
2019-06-27T11:07:22.807Z,5.60
2019-06-27T11:09:53.072Z,5.47
2019-06-27T11:12:23.473Z,4.27
2019-06-27T11:14:59.322Z,4.80
2019-06-27T11:17:25.850Z,4.90
2019-06-27T11:19:56.155Z,5.00
2019-06-27T11:22:26.335Z,5.20
2019-06-27T11:24:56.690Z,5.20
2019-06-27T11:27:27.481Z,5.30
2019-06-27T11:29:57.912Z,6.47
2019-06-27T11:32:28.177Z,5.80
2019-06-27T11:34:58.391Z,5.37
2019-06-27T11:37:28.612Z,4.87
2019-06-27T11:39:58.970Z,5.40
2019-06-27T11:42:30.004Z,6.60
2019-06-27T11:45:00.379Z,5.77
2019-06-27T11:47:34.273Z,4.87
2019-06-27T11:50:02.775Z,5.40
2019-06-27T11:52:33.125Z,5.80
2019-06-27T11:55:03.507Z,6.40
2019-06-27T11:57:33.910Z,5.17
2019-06-27T12:00:05.464Z,9.63
2019-06-27T12:02:35.734Z,6.80
2019-06-27T12:05:07.560Z,6.90
2019-06-27T12:07:37.780Z,5.90
2019-06-27T12:10:08.916Z,7.93
2019-06-27T12:12:39.149Z,6.63
2019-06-27T12:15:09.794Z,8.63
2019-06-27T12:17:40.008Z,7.30
2019-06-27T12:20:10.827Z,7.13
2019-06-27T12:22:41.108Z,7.43
2019-06-27T12:25:11.727Z,7.20
2019-06-27T12:27:41.967Z,5.70
2019-06-27T12:30:13.422Z,6.63
2019-06-27T12:32:51.582Z,6.03
2019-06-27T12:35:15.939Z,6.67
2019-06-27T12:37:46.166Z,6.07
2019-06-27T12:40:17.605Z,7.00
2019-06-27T12:42:49.079Z,6.80
2019-06-27T12:45:19.536Z,5.20
2019-06-27T12:47:49.956Z,5.60
2019-06-27T12:50:21.875Z,4.20
2019-06-27T12:52:52.116Z,4.50
2019-06-27T12:55:22.375Z,3.97
2019-06-27T12:57:52.614Z,3.40
2019-06-27T13:00:23.883Z,3.00
2019-06-27T13:02:54.131Z,2.40
2019-06-27T13:05:24.393Z,2.50
2019-06-27T13:07:54.606Z,2.33
2019-06-27T13:10:29.586Z,2.10
2019-06-27T13:12:59.823Z,2.23
2019-06-27T13:15:30.012Z,2.20
2019-06-27T13:18:00.239Z,2.17
2019-06-27T13:20:30.450Z,1.70
2019-06-27T13:23:00.797Z,2.27
2019-06-27T13:25:34.135Z,2.27
2019-06-27T13:28:03.182Z,2.20
2019-06-27T13:30:33.546Z,2.57
2019-06-27T13:33:03.801Z,2.20
2019-06-27T13:35:34.009Z,2.10
2019-06-27T13:38:04.214Z,2.00
2019-06-27T13:40:34.525Z,2.10
2019-06-27T13:43:04.817Z,1.80
2019-06-27T13:45:35.112Z,2.87
2019-06-27T13:48:05.435Z,6.20
2019-06-27T13:50:35.687Z,3.10
2019-06-27T13:53:06.002Z,2.13
2019-06-27T13:55:36.239Z,2.20
2019-06-27T13:58:06.425Z,2.20
2019-06-27T14:00:45.779Z,2.37
2019-06-27T14:03:16.057Z,1.60
2019-06-27T14:05:46.245Z,1.60
2019-06-27T14:08:16.474Z,1.50
2019-06-27T14:10:46.664Z,1.20
2019-06-27T14:13:16.883Z,1.00
2019-06-27T14:15:47.082Z,1.60
2019-06-27T14:18:19.341Z,0.97
2019-06-27T14:20:49.416Z,3.90
2019-06-27T14:23:19.674Z,1.47
2019-06-27T14:25:49.860Z,1.20
2019-06-27T14:28:20.140Z,1.03
2019-06-27T14:30:50.352Z,1.00
2019-06-27T14:33:20.602Z,0.85
2019-06-27T14:35:50.949Z,0.70
2019-06-27T14:38:21.189Z,0.90
2019-06-27T14:40:51.414Z,0.70
2019-06-27T14:43:21.627Z,0.90
2019-06-27T14:45:52.526Z,0.90
2019-06-27T14:48:22.764Z,0.60
2019-06-27T14:50:52.972Z,0.70
2019-06-27T14:53:23.232Z,4.80
2019-06-27T14:55:54.095Z,0.70
2019-06-27T14:58:24.295Z,0.70
2019-06-27T15:00:54.552Z,0.93
2019-06-27T15:03:24.838Z,0.70
2019-06-27T15:05:55.111Z,3.15
2019-06-27T15:08:25.310Z,0.80
2019-06-27T15:10:55.553Z,0.90
2019-06-27T15:13:25.800Z,1.00
2019-06-27T15:16:10.688Z,0.80
2019-06-27T15:18:28.010Z,0.80
2019-06-27T15:20:58.271Z,0.90
2019-06-27T15:23:29.310Z,2.17
2019-06-27T15:25:59.622Z,0.95
2019-06-27T15:28:34.103Z,0.85
2019-06-27T15:31:02.688Z,1.00
2019-06-27T15:33:32.895Z,1.02
2019-06-27T15:36:03.132Z,0.98
2019-06-27T15:38:33.320Z,1.25
2019-06-27T15:41:03.559Z,0.98
2019-06-27T15:43:33.755Z,1.90
2019-06-27T15:46:03.996Z,1.20
2019-06-27T15:48:34.221Z,4.67
2019-06-27T15:51:04.430Z,1.10
2019-06-27T15:53:34.670Z,0.93
2019-06-27T15:56:04.915Z,5.28
2019-06-27T15:58:35.140Z,1.35
2019-06-27T16:01:05.412Z,1.65
2019-06-27T16:03:35.735Z,1.60
2019-06-27T16:06:10.245Z,1.97
2019-06-27T16:08:38.036Z,1.30
2019-06-27T16:11:08.340Z,1.10
2019-06-27T16:13:38.538Z,1.23
2019-06-27T16:16:08.758Z,1.60
2019-06-27T16:18:40.982Z,3.90
2019-06-27T16:21:16.636Z,0.97
2019-06-27T16:23:46.780Z,1.13
2019-06-27T16:26:17.118Z,1.20
2019-06-27T16:28:47.332Z,1.00
2019-06-27T16:31:17.599Z,1.70
2019-06-27T16:33:47.811Z,1.23
2019-06-27T16:36:25.386Z,1.27
2019-06-27T16:38:49.947Z,2.13
2019-06-27T16:41:20.193Z,1.20
2019-06-27T16:43:50.377Z,0.90
2019-06-27T16:46:21.119Z,1.00
2019-06-27T16:48:51.329Z,1.00
2019-06-27T16:51:21.566Z,2.60
2019-06-27T16:53:51.766Z,1.15
2019-06-27T16:58:51.355Z,1.37
2019-06-27T17:01:21.565Z,1.00
2019-06-27T17:03:51.841Z,1.30
2019-06-27T17:13:50.106Z,1.95
2019-06-27T17:33:47.961Z,1.20
2019-06-27T17:36:18.179Z,1.20
2019-06-27T17:41:17.742Z,2.30
2019-06-27T17:53:45.703Z,1.50
2019-06-27T18:23:39.148Z,1.50
2019-06-27T19:03:30.458Z,1.90
2019-06-27T19:23:56.435Z,1.53
2019-06-27T19:26:26.637Z,3.20
2019-06-27T19:28:56.892Z,8.90
2019-06-27T19:33:56.493Z,1.50
2019-06-27T19:36:26.841Z,2.05
2019-06-27T19:38:57.073Z,1.73
2019-06-27T19:46:26.282Z,2.20
2019-06-27T20:11:38.958Z,1.80
2019-06-27T20:14:09.249Z,1.40
2019-06-27T20:21:38.303Z,3.60
2019-06-27T20:29:07.456Z,1.90
2019-06-27T20:34:07.128Z,1.45
2019-06-27T20:36:37.341Z,1.50
2019-06-27T21:01:32.792Z,1.60
2019-06-27T21:33:55.826Z,1.90
2019-06-27T21:43:55.824Z,1.90
2019-06-27T21:46:26.046Z,2.13
2019-06-27T21:48:56.263Z,1.90
2019-06-27T21:51:26.464Z,1.97
2019-06-27T21:53:56.678Z,1.90
2019-06-27T21:56:26.934Z,1.95
2019-06-27T21:58:57.350Z,3.60
2019-06-27T22:01:27.973Z,6.83
2019-06-27T22:03:58.459Z,2.10
2019-06-27T22:06:31.183Z,1.80
2019-06-27T22:09:01.532Z,1.80
2019-06-27T22:11:31.752Z,4.27
2019-06-27T22:14:02.010Z,1.77
2019-06-27T22:16:32.209Z,2.30
2019-06-27T22:19:02.481Z,3.70
2019-06-27T22:21:32.701Z,1.70
2019-06-27T22:24:04.738Z,1.60
2019-06-27T22:26:35.027Z,2.03
2019-06-27T22:29:05.311Z,2.50
2019-06-27T22:31:35.619Z,2.00
2019-06-27T22:34:05.857Z,1.70
2019-06-27T22:45:00.415Z,3.50
2019-06-27T22:47:49.308Z,5.05
2019-06-27T22:50:39.435Z,2.10
2019-06-27T22:53:11.288Z,2.40
2019-06-27T22:55:41.651Z,4.00
2019-06-27T22:58:11.849Z,2.83
2019-06-27T23:00:42.152Z,2.30
2019-06-27T23:03:12.355Z,2.10
2019-06-27T23:05:42.701Z,2.50
2019-06-27T23:08:12.921Z,2.40
2019-06-27T23:10:43.119Z,4.40
2019-06-27T23:13:13.476Z,2.50
2019-06-27T23:15:44.516Z,2.10
2019-06-27T23:18:14.747Z,3.65
2019-06-27T23:20:45.024Z,2.70
2019-06-27T23:23:15.269Z,3.33
2019-06-27T23:25:45.474Z,2.20
2019-06-27T23:28:15.718Z,2.60
2019-06-27T23:30:45.937Z,2.40
2019-06-27T23:33:16.154Z,2.80
2019-06-27T23:35:46.350Z,2.50
2019-06-27T23:38:16.579Z,2.17
2019-06-27T23:40:46.870Z,2.80
2019-06-27T23:43:17.076Z,2.37
2019-06-27T23:45:47.567Z,2.20
2019-06-27T23:48:17.892Z,3.07
2019-06-27T23:50:48.082Z,2.50
2019-06-27T23:53:18.311Z,2.40
2019-06-27T23:55:48.619Z,2.53
2019-06-27T23:58:18.823Z,2.90
